createdAt,value
2022-11-04T00:00:32.594Z,97610.38
2022-11-04T00:03:01.711Z,97596.72
2022-11-04T00:05:32.298Z,97597.69
2022-11-04T00:08:21.930Z,97596.91
2022-11-04T00:11:13.589Z,97606.59
2022-11-04T00:13:42.885Z,97589.75
2022-11-04T00:16:29.613Z,97602.50
2022-11-04T00:18:59.066Z,97587.31
2022-11-04T00:21:47.018Z,97580.38
2022-11-04T00:24:36.055Z,97572.81
2022-11-04T00:27:22.586Z,97571.97
2022-11-04T00:29:51.722Z,97560.00
2022-11-04T00:32:38.275Z,97569.75
2022-11-04T00:35:08.672Z,97568.03
2022-11-04T00:37:40.339Z,97567.31
2022-11-04T00:40:12.435Z,97562.44
2022-11-04T00:42:43.746Z,97561.59
2022-11-04T00:45:13.158Z,97561.22
2022-11-04T00:47:42.298Z,97552.06
2022-11-04T00:50:11.614Z,97550.63
2022-11-04T00:52:42.582Z,97559.03
2022-11-04T00:55:12.022Z,97553.97
2022-11-04T00:57:41.012Z,97553.59
2022-11-04T01:00:14.182Z,97549.16
2022-11-04T01:02:43.354Z,97543.53
2022-11-04T01:05:12.468Z,97530.84
2022-11-04T01:07:43.896Z,97535.13
2022-11-04T01:10:13.429Z,97529.78
2022-11-04T01:12:42.476Z,97540.84
2022-11-04T01:15:12.425Z,97542.31
2022-11-04T01:17:41.572Z,97535.22
2022-11-04T01:20:13.399Z,97553.53
2022-11-04T01:22:44.038Z,97547.06
2022-11-04T01:25:13.058Z,97543.34
2022-11-04T01:27:42.115Z,97544.16
2022-11-04T01:30:13.213Z,97545.44
2022-11-04T01:32:42.330Z,97543.44
2022-11-04T01:35:11.834Z,97531.00
2022-11-04T01:37:40.847Z,97522.22
2022-11-04T01:40:12.651Z,97522.50
2022-11-04T01:42:41.708Z,97516.72
2022-11-04T01:45:15.975Z,97520.06
2022-11-04T01:47:51.577Z,97499.31
2022-11-04T01:50:25.763Z,97501.16
2022-11-04T01:52:58.290Z,97488.53
2022-11-04T01:55:34.654Z,97488.78
2022-11-04T01:58:08.339Z,97474.34
2022-11-04T02:00:39.813Z,97478.44
2022-11-04T02:03:13.859Z,97480.91
2022-11-04T02:05:43.995Z,97475.28
2022-11-04T02:08:15.237Z,97476.91
2022-11-04T02:10:51.862Z,97478.13
2022-11-04T02:13:20.177Z,97475.38
2022-11-04T02:15:58.541Z,97467.53
2022-11-04T02:18:52.205Z,97465.91
2022-11-04T02:22:09.279Z,97467.53
2022-11-04T02:25:04.105Z,97465.97
2022-11-04T02:27:52.348Z,97459.47
2022-11-04T02:30:23.870Z,97459.28
2022-11-04T02:33:20.877Z,97453.75
2022-11-04T02:36:01.355Z,97446.50
2022-11-04T02:38:39.117Z,97448.94
2022-11-04T02:41:18.176Z,97440.88
2022-11-04T02:43:58.961Z,97434.47
2022-11-04T02:46:36.468Z,97437.28
2022-11-04T02:49:15.673Z,97428.34
2022-11-04T02:51:51.920Z,97426.28
2022-11-04T02:54:27.098Z,97424.63
2022-11-04T02:57:00.703Z,97413.13
2022-11-04T02:59:43.340Z,97416.75
2022-11-04T03:02:20.129Z,97416.28
2022-11-04T03:04:53.594Z,97411.91
2022-11-04T03:07:30.003Z,97412.03
2022-11-04T03:10:06.299Z,97403.28
2022-11-04T03:12:43.712Z,97402.50
2022-11-04T03:15:16.562Z,97393.22
2022-11-04T03:17:53.923Z,97402.06
2022-11-04T03:20:25.870Z,97406.44
2022-11-04T03:22:59.789Z,97402.41
2022-11-04T03:25:34.651Z,97406.47
2022-11-04T03:28:13.636Z,97392.09
2022-11-04T03:30:47.506Z,97410.47
2022-11-04T03:33:25.598Z,97397.25
2022-11-04T03:35:54.783Z,97400.06
2022-11-04T03:38:24.823Z,97410.41
2022-11-04T03:40:53.883Z,97408.72
2022-11-04T03:43:27.795Z,97402.28
2022-11-04T03:45:57.582Z,97412.69
2022-11-04T03:48:28.189Z,97413.34
2022-11-04T03:50:57.315Z,97399.94
2022-11-04T03:53:28.479Z,97396.66
2022-11-04T03:56:39.826Z,97403.00
2022-11-04T03:59:32.252Z,97400.56
2022-11-04T04:02:11.200Z,97406.66
2022-11-04T04:04:50.016Z,97407.03
2022-11-04T04:07:25.555Z,97410.19
2022-11-04T04:10:02.772Z,97413.66
2022-11-04T04:12:39.365Z,97403.00
2022-11-04T04:15:15.645Z,97406.22
2022-11-04T04:17:52.108Z,97404.59
2022-11-04T04:20:27.644Z,97400.44
2022-11-04T04:23:02.565Z,97400.38
2022-11-04T04:25:51.331Z,97397.00
2022-11-04T04:28:21.791Z,97407.47
2022-11-04T04:30:55.177Z,97394.59
2022-11-04T04:33:26.791Z,97403.25
2022-11-04T04:35:58.850Z,97406.69
2022-11-04T04:38:47.719Z,97409.66
2022-11-04T04:41:39.778Z,97411.97
2022-11-04T04:44:35.829Z,97395.28
2022-11-04T04:47:06.903Z,97398.06
2022-11-04T04:49:36.172Z,97394.25
2022-11-04T04:52:09.250Z,97387.06
2022-11-04T04:54:38.338Z,97385.84
2022-11-04T04:57:07.411Z,97376.56
2022-11-04T04:59:36.578Z,97376.50
2022-11-04T05:02:05.940Z,97373.47
2022-11-04T05:04:35.160Z,97374.84
2022-11-04T05:07:04.373Z,97364.84
2022-11-04T05:09:35.005Z,97365.56
2022-11-04T05:12:04.433Z,97367.66
2022-11-04T05:14:33.697Z,97363.63
2022-11-04T05:17:04.763Z,97364.34
2022-11-04T05:19:34.160Z,97377.16
2022-11-04T05:22:05.348Z,97373.47
2022-11-04T05:24:35.922Z,97368.72
2022-11-04T05:27:05.118Z,97374.34
2022-11-04T05:29:34.170Z,97362.91
2022-11-04T05:32:03.262Z,97362.41
2022-11-04T05:34:32.430Z,97357.28
2022-11-04T05:37:01.546Z,97361.59
2022-11-04T05:39:30.602Z,97365.22
2022-11-04T05:42:01.724Z,97369.97
2022-11-04T05:44:30.802Z,97367.78
2022-11-04T05:46:59.827Z,97361.91
2022-11-04T05:49:28.899Z,97364.28
2022-11-04T05:51:58.042Z,97360.31
2022-11-04T05:54:27.715Z,97365.84
2022-11-04T05:56:56.789Z,97359.44
2022-11-04T05:59:27.211Z,97361.03
2022-11-04T06:01:56.403Z,97373.66
2022-11-04T06:04:25.735Z,97368.91
2022-11-04T06:06:54.867Z,97368.78
2022-11-04T06:09:38.842Z,97369.22
2022-11-04T06:12:11.178Z,97374.75
2022-11-04T06:14:41.908Z,97375.81
2022-11-04T06:17:15.749Z,97362.16
2022-11-04T06:19:44.994Z,97365.03
2022-11-04T06:22:19.110Z,97374.97
2022-11-04T06:24:48.185Z,97376.88
2022-11-04T06:27:17.208Z,97381.97
2022-11-04T06:29:47.589Z,97382.78
2022-11-04T06:32:19.230Z,97377.94
2022-11-04T06:34:48.309Z,97379.53
2022-11-04T06:37:17.314Z,97387.44
2022-11-04T06:39:46.676Z,97385.06
2022-11-04T06:42:15.715Z,97385.88
2022-11-04T06:44:44.703Z,97381.13
2022-11-04T06:47:15.132Z,97390.63
2022-11-04T06:49:44.162Z,97388.88
2022-11-04T06:52:13.304Z,97382.00
2022-11-04T06:54:42.342Z,97387.97
2022-11-04T06:57:12.597Z,97377.09
2022-11-04T06:59:41.623Z,97378.69
2022-11-04T07:02:13.130Z,97375.00
2022-11-04T07:04:43.653Z,97375.22
2022-11-04T07:07:12.821Z,97378.25
2022-11-04T07:09:42.077Z,97373.91
2022-11-04T07:12:11.109Z,97381.00
2022-11-04T07:14:40.145Z,97372.91
2022-11-04T07:17:09.295Z,97363.25
2022-11-04T07:19:38.337Z,97356.78
2022-11-04T07:22:09.323Z,97359.06
2022-11-04T07:24:38.467Z,97362.22
2022-11-04T07:27:07.845Z,97357.31
2022-11-04T07:29:37.256Z,97347.47
2022-11-04T07:32:07.309Z,97327.25
2022-11-04T07:34:36.390Z,97324.63
2022-11-04T07:37:05.484Z,97319.72
2022-11-04T07:39:35.887Z,97319.53
2022-11-04T07:42:05.180Z,97312.22
2022-11-04T07:44:34.195Z,97315.31
2022-11-04T07:47:03.290Z,97305.19
2022-11-04T07:49:32.506Z,97309.47
2022-11-04T07:52:01.515Z,97306.13
2022-11-04T07:54:30.536Z,97309.28
2022-11-04T07:57:01.016Z,97302.75
2022-11-04T07:59:30.066Z,97302.41
2022-11-04T08:01:59.178Z,97306.13
2022-11-04T08:04:28.980Z,97303.75
2022-11-04T08:06:58.006Z,97321.41
2022-11-04T08:09:27.343Z,97323.09
2022-11-04T08:11:56.420Z,97323.19
2022-11-04T08:14:28.687Z,97318.25
2022-11-04T08:16:58.086Z,97311.75
2022-11-04T08:19:27.723Z,97307.69
2022-11-04T08:21:56.773Z,97307.25
2022-11-04T08:24:26.327Z,97300.28
2022-11-04T08:26:55.389Z,97297.50
2022-11-04T08:29:29.179Z,97301.00
2022-11-04T08:31:58.246Z,97292.91
2022-11-04T08:34:27.384Z,97297.97
2022-11-04T08:36:57.615Z,97291.09
2022-11-04T08:39:27.037Z,97280.53
2022-11-04T08:41:57.276Z,97263.91
2022-11-04T08:44:26.658Z,97257.72
2022-11-04T08:46:57.416Z,97252.31
2022-11-04T08:49:26.574Z,97258.06
2022-11-04T08:51:57.567Z,97256.50
2022-11-04T08:54:28.225Z,97244.09
2022-11-04T08:56:57.546Z,97239.28
2022-11-04T08:59:26.603Z,97241.19
2022-11-04T09:01:57.387Z,97237.81
2022-11-04T09:04:26.502Z,97231.28
2022-11-04T09:06:56.422Z,97224.44
2022-11-04T09:09:25.492Z,97217.69
2022-11-04T09:11:55.174Z,97218.47
2022-11-04T09:14:24.626Z,97215.19
2022-11-04T09:16:54.174Z,97206.31
2022-11-04T09:19:24.662Z,97199.09
2022-11-04T09:21:53.741Z,97195.94
2022-11-04T09:24:22.849Z,97201.22
2022-11-04T09:26:51.928Z,97191.91
2022-11-04T09:29:20.974Z,97181.88
2022-11-04T09:31:50.355Z,97180.97
2022-11-04T09:34:20.046Z,97179.75
2022-11-04T09:36:50.569Z,97178.16
2022-11-04T09:39:19.674Z,97174.09
2022-11-04T09:42:00.943Z,97166.91
2022-11-04T09:45:19.440Z,97167.22
2022-11-04T09:47:41.735Z,97161.13
2022-11-04T09:50:20.378Z,97160.03
2022-11-04T09:52:56.501Z,97160.50
2022-11-04T09:55:32.300Z,97151.59
2022-11-04T09:58:01.775Z,97146.28
2022-11-04T10:00:36.689Z,97145.03
2022-11-04T10:03:22.661Z,97125.66
2022-11-04T10:06:09.333Z,97124.09
2022-11-04T10:09:03.653Z,97121.28
2022-11-04T10:11:41.384Z,97119.81
2022-11-04T10:14:36.307Z,97111.47
2022-11-04T10:17:18.959Z,97103.94
2022-11-04T10:20:03.016Z,97094.91
2022-11-04T10:22:35.481Z,97091.53
2022-11-04T10:25:15.091Z,97085.13
2022-11-04T10:27:48.383Z,97079.25
2022-11-04T10:30:21.063Z,97080.28
2022-11-04T10:33:07.084Z,97072.41
2022-11-04T10:35:41.011Z,97068.34
2022-11-04T10:38:20.548Z,97067.56
2022-11-04T10:40:53.822Z,97063.50
2022-11-04T10:43:32.717Z,97059.44
2022-11-04T10:46:16.854Z,97058.22
2022-11-04T10:48:52.983Z,97052.00
2022-11-04T10:51:23.918Z,97046.25
2022-11-04T10:53:57.782Z,97045.47
2022-11-04T10:56:39.596Z,97043.44
2022-11-04T10:59:24.532Z,97039.84
2022-11-04T11:01:56.310Z,97031.84
2022-11-04T11:04:31.662Z,97017.16
2022-11-04T11:07:03.454Z,97013.63
2022-11-04T11:09:34.897Z,97019.94
2022-11-04T11:12:49.600Z,97006.78
2022-11-04T11:15:30.082Z,97000.22
2022-11-04T11:18:04.637Z,96996.50
2022-11-04T11:20:37.602Z,96996.81
2022-11-04T11:23:10.307Z,96985.22
2022-11-04T11:25:45.378Z,96980.25
2022-11-04T11:28:25.526Z,96971.19
2022-11-04T11:31:01.455Z,96978.13
2022-11-04T11:33:32.798Z,96983.84
2022-11-04T11:36:06.912Z,96975.38
2022-11-04T11:38:36.646Z,96977.88
2022-11-04T11:41:24.502Z,96980.69
2022-11-04T11:43:58.096Z,96979.59
2022-11-04T11:46:30.067Z,96984.16
2022-11-04T11:49:02.309Z,96975.47
2022-11-04T11:51:35.091Z,96971.06
2022-11-04T11:54:23.803Z,96986.41
2022-11-04T12:02:55.322Z,96974.88
2022-11-04T12:11:59.529Z,96962.66
2022-11-04T12:14:48.688Z,96952.34
2022-11-04T12:17:39.612Z,96949.25
2022-11-04T12:20:27.107Z,96948.97
2022-11-04T12:23:06.051Z,96940.84
2022-11-04T12:25:44.382Z,96934.91
2022-11-04T12:28:29.392Z,96934.91
2022-11-04T12:31:15.001Z,96931.78
2022-11-04T12:33:56.863Z,96930.69
2022-11-04T12:36:58.030Z,96921.28
2022-11-04T12:39:49.686Z,96923.94
2022-11-04T12:42:32.825Z,96931.97
2022-11-04T12:45:21.303Z,96921.34
2022-11-04T12:47:50.294Z,96916.16
2022-11-04T12:50:58.774Z,96915.56
2022-11-04T12:54:01.327Z,96911.00
2022-11-04T12:56:38.526Z,96915.22
2022-11-04T12:59:33.056Z,96922.13
2022-11-04T13:02:11.933Z,96917.41
2022-11-04T13:04:49.486Z,96920.69
2022-11-04T13:07:24.540Z,96911.28
2022-11-04T13:09:57.430Z,96925.22
2022-11-04T13:12:32.141Z,96922.69
2022-11-04T13:15:06.750Z,96933.34
2022-11-04T13:17:40.786Z,96928.31
2022-11-04T13:20:23.877Z,96942.38
2022-11-04T13:23:03.184Z,96936.72
2022-11-04T13:25:41.655Z,96953.75
2022-11-04T13:28:13.577Z,96951.06
2022-11-04T13:30:51.199Z,96949.81
2022-11-04T13:33:31.270Z,96956.38
2022-11-04T13:36:09.977Z,96958.88
2022-11-04T13:38:46.954Z,96957.03
2022-11-04T13:41:45.971Z,96955.47
2022-11-04T13:44:21.484Z,96959.19
2022-11-04T13:46:53.918Z,96961.09
2022-11-04T13:49:30.757Z,96953.88
2022-11-04T13:52:08.284Z,96972.25
2022-11-04T13:54:41.934Z,96983.66
2022-11-04T13:57:17.347Z,96979.78
2022-11-04T14:00:23.696Z,96975.22
2022-11-04T14:02:54.084Z,96960.78
2022-11-04T14:06:05.613Z,96961.75
2022-11-04T14:08:35.098Z,96947.03
2022-11-04T14:11:14.055Z,96946.09
2022-11-04T14:14:02.387Z,96935.47
2022-11-04T14:16:45.790Z,96923.56
2022-11-04T14:20:00.954Z,96964.09
2022-11-04T14:22:38.903Z,96960.78
2022-11-04T14:25:32.908Z,96975.38
2022-11-04T14:28:18.217Z,96967.66
2022-11-04T14:30:51.990Z,96976.56
2022-11-04T14:33:50.475Z,96978.13
2022-11-04T14:36:43.802Z,96968.56
2022-11-04T14:39:26.807Z,96975.78
2022-11-04T14:42:00.118Z,96978.94
2022-11-04T14:44:36.310Z,96983.56
2022-11-04T14:47:19.223Z,96996.94
2022-11-04T14:49:50.530Z,97004.88
2022-11-04T14:52:27.932Z,96998.66
2022-11-04T14:55:04.205Z,97007.09
2022-11-04T14:57:39.278Z,97004.22
2022-11-04T15:00:35.800Z,97013.00
2022-11-04T15:03:57.512Z,97015.50
2022-11-04T15:06:09.646Z,97020.34
2022-11-04T15:08:45.840Z,97005.59
2022-11-04T15:11:38.885Z,97013.50
2022-11-04T15:14:18.326Z,97011.81
2022-11-04T15:16:52.781Z,97019.28
2022-11-04T15:19:30.542Z,97022.25
2022-11-04T15:22:00.710Z,97013.91
2022-11-04T15:24:31.106Z,97016.53
2022-11-04T15:27:10.227Z,97015.75
2022-11-04T15:29:39.416Z,97016.94
2022-11-04T15:32:18.903Z,97031.34
2022-11-04T15:34:48.925Z,97033.16
2022-11-04T15:37:18.568Z,97024.91
2022-11-04T15:39:51.207Z,97032.50
2022-11-04T15:42:44.677Z,97032.13
2022-11-04T15:45:38.692Z,97051.34
2022-11-04T15:48:37.818Z,97075.38
2022-11-04T15:51:19.794Z,97079.78
2022-11-04T15:53:54.757Z,97086.34
2022-11-04T15:56:27.172Z,97098.25
2022-11-04T15:58:58.113Z,97099.50
2022-11-04T16:01:29.442Z,97099.56
2022-11-04T16:04:02.079Z,97095.59
2022-11-04T16:06:37.441Z,97095.25
2022-11-04T16:09:21.754Z,97103.53
2022-11-04T16:12:16.370Z,97110.47
2022-11-04T16:14:52.209Z,97117.91
2022-11-04T16:17:22.598Z,97132.69
2022-11-04T16:19:57.019Z,97137.94
2022-11-04T16:22:32.471Z,97142.16
2022-11-04T16:25:04.895Z,97147.50
2022-11-04T16:27:36.986Z,97151.66
2022-11-04T16:30:19.103Z,97159.09
2022-11-04T16:32:50.049Z,97160.59
2022-11-04T16:35:24.886Z,97164.63
2022-11-04T16:37:56.043Z,97162.34
2022-11-04T16:40:26.408Z,97156.53
2022-11-04T16:42:55.666Z,97175.06
2022-11-04T16:45:30.747Z,97178.91
2022-11-04T16:47:59.824Z,97184.44
2022-11-04T16:50:32.023Z,97181.75
2022-11-04T16:53:03.723Z,97178.47
2022-11-04T16:55:33.768Z,97184.78
2022-11-04T16:58:05.840Z,97197.91
2022-11-04T17:00:35.228Z,97198.81
2022-11-04T17:03:21.796Z,97205.44
2022-11-04T17:05:56.308Z,97207.16
2022-11-04T17:08:26.060Z,97208.75
2022-11-04T17:10:55.699Z,97218.94
2022-11-04T17:13:25.266Z,97218.09
2022-11-04T17:15:54.576Z,97223.50
2022-11-04T17:18:23.991Z,97227.91
2022-11-04T17:20:57.159Z,97238.53
2022-11-04T17:23:26.561Z,97249.75
2022-11-04T17:25:55.767Z,97258.81
2022-11-04T17:28:24.900Z,97257.25
2022-11-04T17:30:54.127Z,97265.31
2022-11-04T17:33:23.287Z,97268.63
2022-11-04T17:35:54.445Z,97268.81
2022-11-04T17:38:23.562Z,97273.03
2022-11-04T17:41:09.976Z,97275.50
2022-11-04T17:43:56.399Z,97290.75
2022-11-04T17:46:38.998Z,97293.56
2022-11-04T17:49:13.298Z,97303.81
2022-11-04T17:51:47.305Z,97301.00
2022-11-04T17:54:22.326Z,97309.00
2022-11-04T17:56:51.924Z,97304.81
2022-11-04T17:59:21.133Z,97292.88
2022-11-04T18:01:50.641Z,97310.59
2022-11-04T18:04:23.165Z,97320.78
2022-11-04T18:06:58.445Z,97333.81
2022-11-04T18:09:30.964Z,97335.66
2022-11-04T18:12:17.172Z,97346.19
2022-11-04T18:14:46.383Z,97336.72
2022-11-04T18:17:18.441Z,97335.34
2022-11-04T18:19:48.026Z,97343.84
2022-11-04T18:22:18.861Z,97345.50
2022-11-04T18:24:48.163Z,97341.09
2022-11-04T18:27:17.436Z,97356.34
2022-11-04T18:29:46.601Z,97357.22
2022-11-04T18:32:15.841Z,97359.72
2022-11-04T18:34:45.041Z,97360.56
2022-11-04T18:37:14.771Z,97366.19
2022-11-04T18:39:45.802Z,97376.63
2022-11-04T18:42:15.088Z,97368.28
2022-11-04T18:44:44.214Z,97375.97
2022-11-04T18:47:14.256Z,97376.53
2022-11-04T18:49:43.761Z,97378.06
2022-11-04T18:52:12.990Z,97378.56
2022-11-04T18:54:45.602Z,97384.72
2022-11-04T18:57:17.534Z,97381.09
2022-11-04T18:59:48.409Z,97383.91
2022-11-04T19:02:23.567Z,97393.25
2022-11-04T19:04:54.065Z,97396.06
2022-11-04T19:07:23.851Z,97391.53
2022-11-04T19:09:55.197Z,97391.91
2022-11-04T19:12:41.788Z,97393.97
2022-11-04T19:15:11.554Z,97400.44
2022-11-04T19:17:40.779Z,97410.09
2022-11-04T19:20:12.510Z,97404.91
2022-11-04T19:22:43.782Z,97402.53
2022-11-04T19:25:14.963Z,97398.00
2022-11-04T19:27:44.316Z,97410.34
2022-11-04T19:30:14.563Z,97418.13
2022-11-04T19:32:43.683Z,97427.06
2022-11-04T19:35:12.734Z,97421.63
2022-11-04T19:37:42.071Z,97424.06
2022-11-04T19:40:13.990Z,97425.66
2022-11-04T19:43:01.107Z,97435.69
2022-11-04T19:45:30.314Z,97432.03
2022-11-04T19:48:01.848Z,97435.00
2022-11-04T19:50:31.281Z,97435.16
2022-11-04T19:53:00.469Z,97437.38
2022-11-04T19:55:33.108Z,97439.13
2022-11-04T19:58:03.237Z,97447.13
2022-11-04T20:00:33.237Z,97445.59
2022-11-04T20:03:02.500Z,97451.13
2022-11-04T20:05:31.786Z,97460.84
2022-11-04T20:08:06.103Z,97457.22
2022-11-04T20:10:39.686Z,97446.22
2022-11-04T20:13:32.887Z,97454.38
2022-11-04T20:16:03.130Z,97450.47
2022-11-04T20:18:32.235Z,97455.16
2022-11-04T20:21:04.735Z,97447.41
2022-11-04T20:23:33.848Z,97446.50
2022-11-04T20:26:16.238Z,97447.59
2022-11-04T20:28:49.218Z,97448.44
2022-11-04T20:31:26.419Z,97455.63
2022-11-04T20:33:56.957Z,97457.44
2022-11-04T20:36:28.896Z,97456.75
2022-11-04T20:38:59.200Z,97456.84
2022-11-04T20:41:30.475Z,97462.44
2022-11-04T20:44:00.141Z,97465.25
2022-11-04T20:46:35.012Z,97464.03
2022-11-04T20:49:05.935Z,97456.25
2022-11-04T20:51:41.700Z,97457.59
2022-11-04T20:54:13.490Z,97469.25
2022-11-04T20:56:45.567Z,97469.31
2022-11-04T20:59:16.380Z,97482.97
2022-11-04T21:01:48.850Z,97484.66
2022-11-04T21:04:21.496Z,97478.53
2022-11-04T21:06:52.784Z,97475.75
2022-11-04T21:09:22.952Z,97475.47
2022-11-04T21:11:54.002Z,97477.47
2022-11-04T21:14:23.655Z,97478.31
2022-11-04T21:16:53.852Z,97483.06
2022-11-04T21:19:23.709Z,97487.38
2022-11-04T21:21:52.956Z,97492.13
2022-11-04T21:24:22.401Z,97485.31
2022-11-04T21:26:52.991Z,97482.88
2022-11-04T21:29:22.127Z,97479.84
2022-11-04T21:31:51.180Z,97475.69
2022-11-04T21:34:20.318Z,97469.81
2022-11-04T21:36:53.271Z,97471.44
2022-11-04T21:39:23.048Z,97467.41
2022-11-04T21:41:53.444Z,97477.75
2022-11-04T21:44:23.915Z,97481.94
2022-11-04T21:46:53.026Z,97482.50
2022-11-04T21:49:22.181Z,97487.34
2022-11-04T21:51:51.259Z,97491.09
2022-11-04T21:54:20.524Z,97495.56
2022-11-04T21:56:53.096Z,97497.56
2022-11-04T21:59:22.235Z,97488.44
2022-11-04T22:01:51.399Z,97488.47
2022-11-04T22:04:20.655Z,97480.50
2022-11-04T22:06:49.666Z,97487.28
2022-11-04T22:09:18.998Z,97490.06
2022-11-04T22:11:48.157Z,97491.66
2022-11-04T22:14:18.740Z,97486.88
2022-11-04T22:16:47.861Z,97494.03
2022-11-04T22:19:16.880Z,97501.66
2022-11-04T22:21:47.241Z,97506.88
2022-11-04T22:24:18.346Z,97510.06
2022-11-04T22:26:47.744Z,97510.50
2022-11-04T22:29:18.430Z,97507.69
2022-11-04T22:31:47.444Z,97502.13
2022-11-04T22:34:16.545Z,97512.91
2022-11-04T22:36:45.692Z,97499.72
2022-11-04T22:39:17.084Z,97497.38
2022-11-04T22:41:47.425Z,97513.28
2022-11-04T22:44:16.446Z,97509.28
2022-11-04T22:46:46.857Z,97503.69
2022-11-04T22:49:16.332Z,97511.72
2022-11-04T22:51:45.425Z,97520.50
2022-11-04T22:54:14.724Z,97528.50
2022-11-04T22:56:43.953Z,97528.50
2022-11-04T22:59:13.399Z,97539.31
2022-11-04T23:01:42.612Z,97542.88
2022-11-04T23:04:14.093Z,97538.84
2022-11-04T23:06:43.534Z,97532.34
2022-11-04T23:09:13.960Z,97535.22
2022-11-04T23:12:00.586Z,97532.47
2022-11-04T23:14:49.362Z,97526.16
2022-11-04T23:17:38.092Z,97518.97
2022-11-04T23:20:13.503Z,97519.03
2022-11-04T23:23:00.102Z,97531.00
2022-11-04T23:25:29.395Z,97543.75
2022-11-04T23:28:16.137Z,97550.06
2022-11-04T23:30:53.209Z,97547.78
2022-11-04T23:33:42.925Z,97551.75
2022-11-04T23:36:31.023Z,97547.28
2022-11-04T23:39:00.040Z,97550.16
2022-11-04T23:41:46.404Z,97556.19
2022-11-04T23:44:29.377Z,97557.00
2022-11-04T23:47:30.430Z,97569.34
2022-11-04T23:50:16.998Z,97572.50
2022-11-04T23:53:04.609Z,97572.50
2022-11-04T23:55:51.136Z,97575.72
2022-11-04T23:58:37.632Z,97578.13
